Time;durP1;ratioP1;P1;durP2;ratioP2;P2;SDS_P1;SDS_P2;PMS_P1;PMS_P2;Temp;Humidity;BMP_temperature;BMP_pressure;BME280_temperature;BME280_humidity;BME280_pressure;Samples;Min_cycle;Max_cycle;Signal;HPM_P1;HPM_P2
2022/09/27 00:01:06;;;;;;;3.40;1.60;;;;;;;9.20;100.00;99638.31;5029742;28;20100;-66
2022/09/27 00:03:31;;;;;;;4.07;1.88;;;;;;;9.19;100.00;99634.00;5027973;28;20044;-66
2022/09/27 00:06:06;;;;;;;7.47;2.20;;;;;;;9.21;100.00;99633.16;5028975;28;20108;-66
2022/09/27 00:08:33;;;;;;;3.15;1.60;;;;;;;9.22;100.00;99639.22;5029174;28;20041;-66
2022/09/27 00:11:00;;;;;;;3.38;1.58;;;;;;;9.22;100.00;99634.03;5028443;28;20041;-66
2022/09/27 00:13:26;;;;;;;6.60;1.95;;;;;;;9.20;100.00;99636.59;5029479;28;20116;-66
2022/09/27 00:15:56;;;;;;;3.97;1.40;;;;;;;9.22;100.00;99645.28;5028892;28;20453;-66
2022/09/27 00:18:21;;;;;;;3.58;1.50;;;;;;;9.22;100.00;99644.38;5029019;28;20541;-66
2022/09/27 00:20:46;;;;;;;5.38;1.70;;;;;;;9.23;100.00;99649.59;5028419;28;20332;-66
2022/09/27 00:23:12;;;;;;;3.63;1.20;;;;;;;9.24;100.00;99650.47;5024059;28;20034;-66
2022/09/27 00:25:38;;;;;;;3.92;1.38;;;;;;;9.23;100.00;99662.50;5019629;28;20076;-66
2022/09/27 00:28:03;;;;;;;5.22;1.85;;;;;;;9.19;100.00;99665.88;5026529;28;20029;-66
2022/09/27 00:30:28;;;;;;;3.40;1.05;;;;;;;9.20;100.00;99665.03;5017148;28;20104;-66
2022/09/27 00:32:53;;;;;;;4.63;0.82;;;;;;;9.19;100.00;99673.63;5033449;28;20037;-66
2022/09/27 00:35:19;;;;;;;2.10;0.90;;;;;;;9.17;100.00;99677.03;5028414;28;20488;-65
2022/09/27 00:37:47;;;;;;;5.30;1.02;;;;;;;9.17;100.00;99683.09;5028495;28;20029;-65
2022/09/27 00:40:14;;;;;;;3.30;0.73;;;;;;;9.18;100.00;99678.75;5027415;28;20040;-66
2022/09/27 00:42:39;;;;;;;2.72;0.90;;;;;;;9.15;100.00;99668.38;5027867;28;20149;-66
2022/09/27 00:45:11;;;;;;;3.17;0.77;;;;;;;9.13;100.00;99661.47;5028321;28;20041;-65
2022/09/27 00:47:54;;;;;;;3.75;1.02;;;;;;;9.13;100.00;99660.59;5027743;28;20366;-65
2022/09/27 00:50:34;;;;;;;3.35;0.60;;;;;;;9.10;100.00;99658.81;5028117;28;20112;-65
2022/09/27 00:53:05;;;;;;;2.67;0.60;;;;;;;9.07;100.00;99666.50;5028286;28;20025;-66
2022/09/27 00:55:39;;;;;;;3.97;0.60;;;;;;;9.07;100.00;99669.09;5027574;28;20556;-66
2022/09/27 00:58:05;;;;;;;4.65;1.10;;;;;;;9.08;100.00;99667.41;5027759;28;20041;-66
2022/09/27 01:00:31;;;;;;;2.85;0.70;;;;;;;9.06;100.00;99667.38;5027972;28;20025;-65
2022/09/27 01:02:57;;;;;;;2.83;0.60;;;;;;;9.05;100.00;99668.19;5027950;28;20025;-65
2022/09/27 01:05:26;;;;;;;2.67;0.50;;;;;;;9.06;100.00;99671.66;5028331;28;20104;-66
2022/09/27 01:07:55;;;;;;;3.50;0.85;;;;;;;9.04;100.00;99671.63;5027799;28;20477;-66
2022/09/27 01:10:24;;;;;;;4.80;0.80;;;;;;;9.04;100.00;99676.81;5027483;28;20440;-65
2022/09/27 01:13:22;;;;;;;4.95;0.90;;;;;;;9.04;100.00;99676.81;5027825;28;20024;-65
2022/09/27 01:16:07;;;;;;;6.63;1.48;;;;;;;9.05;100.00;99686.28;5028162;28;20021;-66
2022/09/27 01:18:57;;;;;;;5.40;1.27;;;;;;;9.05;100.00;99672.50;5028434;28;20070;-65
2022/09/27 01:21:45;;;;;;;2.10;1.05;;;;;;;9.03;100.00;99675.03;5027046;28;20044;-65
2022/09/27 01:24:13;;;;;;;5.80;1.15;;;;;;;9.02;100.00;99673.31;5027875;28;20034;-66
2022/09/27 01:26:59;;;;;;;2.92;0.90;;;;;;;9.00;100.00;99669.81;5027742;28;20025;-65
2022/09/27 01:29:54;;;;;;;2.72;0.70;;;;;;;8.98;100.00;99671.50;5027431;28;20041;-65
2022/09/27 01:32:49;;;;;;;5.35;1.00;;;;;;;8.97;100.00;99680.97;5026856;28;20063;-65
2022/09/27 01:35:44;;;;;;;5.75;1.40;;;;;;;8.97;100.00;99680.09;4995681;28;20114;-65
2022/09/27 01:38:30;;;;;;;5.28;0.70;;;;;;;8.96;100.00;99691.28;5020206;28;20045;-66
2022/09/27 01:41:01;;;;;;;2.70;0.77;;;;;;;8.95;100.00;99684.34;5027699;28;20028;-65
2022/09/27 01:43:33;;;;;;;3.58;1.08;;;;;;;8.94;100.00;99688.66;5027378;28;20049;-65
2022/09/27 01:46:07;;;;;;;2.47;0.93;;;;;;;8.92;100.00;99692.94;5027298;28;20044;-65
2022/09/27 01:48:40;;;;;;;4.05;0.82;;;;;;;8.94;100.00;99695.56;5027512;28;20380;-65
2022/09/27 01:51:15;;;;;;;2.55;0.90;;;;;;;8.94;100.00;99698.13;5026641;28;20516;-65
2022/09/27 01:53:45;;;;;;;3.88;0.60;;;;;;;8.92;100.00;99692.06;5027382;28;20061;-65
2022/09/27 01:56:16;;;;;;;3.67;0.83;;;;;;;8.92;100.00;99700.69;5026791;28;20033;-65
2022/09/27 01:58:50;;;;;;;5.47;1.50;;;;;;;8.87;100.00;99705.75;5027257;28;20052;-65
2022/09/27 02:01:17;;;;;;;3.33;0.73;;;;;;;8.87;100.00;99710.91;5026031;28;20033;-65
2022/09/27 02:03:48;;;;;;;4.82;1.08;;;;;;;8.84;100.00;99705.69;5019241;28;20033;-65
2022/09/27 02:06:20;;;;;;;4.75;0.90;;;;;;;8.81;100.00;99692.72;5026994;28;20384;-64
2022/09/27 02:08:54;;;;;;;3.35;1.17;;;;;;;8.78;100.00;99697.78;5026515;28;20144;-64
2022/09/27 02:11:19;;;;;;;3.22;0.50;;;;;;;8.77;100.00;99691.78;5027272;28;20037;-64
2022/09/27 02:14:12;;;;;;;4.03;0.80;;;;;;;8.75;100.00;99700.31;5027006;28;20025;-65
2022/09/27 02:16:40;;;;;;;2.15;0.35;;;;;;;8.75;100.00;99695.16;5027065;28;20072;-65
2022/09/27 02:19:23;;;;;;;4.38;0.80;;;;;;;8.71;100.00;99699.38;5026613;28;20064;-65
2022/09/27 02:22:10;;;;;;;3.75;0.52;;;;;;;8.71;100.00;99695.91;5027657;28;20032;-65
2022/09/27 02:24:45;;;;;;;6.43;0.75;;;;;;;8.70;100.00;99702.81;5026864;28;20029;-65
2022/09/27 02:27:26;;;;;;;2.70;0.40;;;;;;;8.67;100.00;99696.72;5026959;28;20028;-64
2022/09/27 02:30:04;;;;;;;3.78;1.10;;;;;;;8.64;100.00;99706.13;5025245;28;20098;-65
2022/09/27 02:32:31;;;;;;;3.90;0.52;;;;;;;8.62;100.00;99702.63;5026210;28;20017;-64
2022/09/27 02:34:59;;;;;;;4.60;0.93;;;;;;;8.62;100.00;99697.47;5026134;28;20013;-64
2022/09/27 02:37:25;;;;;;;5.78;0.88;;;;;;;8.62;100.00;99702.63;5026347;28;20040;-64
2022/09/27 02:39:50;;;;;;;3.28;0.90;;;;;;;8.61;100.00;99707.78;5026930;28;20021;-65
2022/09/27 02:42:15;;;;;;;3.53;0.57;;;;;;;8.57;100.00;99706.84;5039205;28;20112;-65
2022/09/27 02:44:41;;;;;;;2.67;0.40;;;;;;;8.56;100.00;99719.72;5026343;28;20496;-64
2022/09/27 02:47:23;;;;;;;3.47;0.60;;;;;;;8.53;100.00;99717.88;5023424;28;20006;-65
2022/09/27 02:49:59;;;;;;;4.65;0.63;;;;;;;8.50;100.00;99717.84;5025891;28;20293;-65
2022/09/27 02:52:54;;;;;;;6.38;0.80;;;;;;;8.47;100.00;99710.03;5025955;28;20032;-65
2022/09/27 02:55:46;;;;;;;4.97;0.68;;;;;;;8.46;100.00;99716.00;5020196;28;20042;-64
2022/09/27 02:58:36;;;;;;;3.10;0.60;;;;;;;8.40;100.00;99709.03;5024943;28;20381;-64
2022/09/27 03:01:11;;;;;;;3.50;0.60;;;;;;;8.38;100.00;99705.53;5026088;28;20033;-64
2022/09/27 03:03:54;;;;;;;3.20;0.77;;;;;;;8.28;100.00;99710.47;5032256;28;20535;-64
2022/09/27 03:06:22;;;;;;;3.72;1.02;;;;;;;8.24;100.00;99705.22;5027603;28;20052;-65
2022/09/27 03:08:47;;;;;;;2.38;1.33;;;;;;;8.21;100.00;99699.94;5028240;28;20079;-65
2022/09/27 03:11:13;;;;;;;4.68;0.50;;;;;;;8.17;100.00;99707.63;5028402;28;20027;-65
2022/09/27 03:13:38;;;;;;;5.80;0.88;;;;;;;8.13;100.00;99705.81;5029489;28;20023;-65
2022/09/27 03:16:05;;;;;;;2.38;0.63;;;;;;;8.04;100.00;99695.28;5040613;28;20090;-64
2022/09/27 03:18:31;;;;;;;3.53;0.70;;;;;;;8.05;100.00;99709.91;5028613;28;20030;-64
2022/09/27 03:20:56;;;;;;;2.28;0.50;;;;;;;8.03;100.00;99698.69;5029151;28;20022;-65
2022/09/27 03:23:22;;;;;;;3.80;1.08;;;;;;;7.99;100.00;99699.44;5028635;28;20047;-65
2022/09/27 03:25:48;;;;;;;3.45;0.65;;;;;;;7.98;100.00;99700.28;5029816;28;20064;-65
2022/09/27 03:28:14;;;;;;;1.25;0.47;;;;;;;7.93;100.00;99698.47;5029128;28;20020;-64
2022/09/27 03:30:40;;;;;;;4.47;0.50;;;;;;;7.92;100.00;99707.03;5029737;28;20025;-65
2022/09/27 03:33:08;;;;;;;2.47;0.90;;;;;;;7.92;100.00;99708.75;5029355;28;20332;-65
2022/09/27 03:35:33;;;;;;;5.38;1.27;;;;;;;7.93;100.00;99707.94;5029770;28;20018;-65
2022/09/27 03:37:58;;;;;;;7.13;0.80;;;;;;;7.92;100.00;99714.78;5029514;28;20036;-64
2022/09/27 03:40:24;;;;;;;6.63;0.68;;;;;;;7.92;100.00;99716.47;5029439;28;20046;-64
2022/09/27 03:42:49;;;;;;;3.85;0.90;;;;;;;7.92;100.00;99712.19;5029482;28;20568;-64
2022/09/27 03:45:15;;;;;;;6.05;1.23;;;;;;;7.91;100.00;99715.63;5029244;28;20018;-64
2022/09/27 03:47:40;;;;;;;3.88;0.75;;;;;;;7.92;100.00;99721.63;5029178;28;20107;-64
2022/09/27 03:50:07;;;;;;;6.38;1.00;;;;;;;7.92;100.00;99727.69;5029026;28;20064;-64
2022/09/27 03:52:33;;;;;;;3.92;0.93;;;;;;;7.94;100.00;99740.63;5029326;28;20025;-64
2022/09/27 03:54:59;;;;;;;4.03;0.80;;;;;;;7.95;100.00;99746.66;5029234;28;20033;-65
2022/09/27 03:57:24;;;;;;;5.18;0.82;;;;;;;7.97;100.00;99747.56;5029299;28;20025;-65
2022/09/27 03:59:50;;;;;;;3.17;0.75;;;;;;;8.00;100.00;99757.97;5028567;28;20021;-64
2022/09/27 04:02:15;;;;;;;4.55;0.77;;;;;;;8.03;100.00;99760.59;5029167;28;20175;-64
2022/09/27 04:04:40;;;;;;;4.13;0.75;;;;;;;8.07;100.00;99762.44;5029321;28;20078;-64
2022/09/27 04:07:07;;;;;;;3.00;0.90;;;;;;;8.08;100.00;99771.91;5029380;28;20489;-64
2022/09/27 04:09:32;;;;;;;4.97;0.93;;;;;;;8.08;100.00;99764.19;5028478;28;20550;-64
2022/09/27 04:11:57;;;;;;;4.13;0.90;;;;;;;8.07;100.00;99757.28;5029101;28;20164;-64
2022/09/27 04:14:23;;;;;;;3.25;0.90;;;;;;;8.07;100.00;99765.03;5028306;28;20056;-64
2022/09/27 04:16:48;;;;;;;1.13;0.57;;;;;;;8.07;100.00;99766.72;5028863;28;20041;-65
2022/09/27 04:19:13;;;;;;;2.03;0.60;;;;;;;8.08;100.00;99764.19;5028797;28;20026;-64
2022/09/27 04:21:38;;;;;;;2.28;0.52;;;;;;;8.05;100.00;99753.78;5029116;28;20030;-64
2022/09/27 04:24:05;;;;;;;3.10;1.00;;;;;;;8.07;100.00;99752.13;5028364;28;20021;-64
2022/09/27 04:26:30;;;;;;;2.63;0.60;;;;;;;8.05;100.00;99743.47;5028786;28;20021;-65
2022/09/27 04:28:56;;;;;;;2.47;0.70;;;;;;;8.07;100.00;99736.63;5028997;28;20086;-64
2022/09/27 04:31:22;;;;;;;2.95;0.90;;;;;;;8.05;100.00;99731.44;5031986;28;20046;-64
2022/09/27 04:33:47;;;;;;;2.97;0.50;;;;;;;8.06;100.00;99721.97;5028724;28;20396;-64
2022/09/27 04:36:27;;;;;;;2.13;0.60;;;;;;;8.06;100.00;99724.56;5017028;28;20113;-64
2022/09/27 04:38:59;;;;;;;5.03;0.75;;;;;;;8.07;100.00;99731.47;5028356;28;20044;-64
2022/09/27 04:41:26;;;;;;;3.75;0.60;;;;;;;8.04;100.00;99727.09;5035605;28;20036;-64
2022/09/27 04:43:53;;;;;;;4.57;0.90;;;;;;;8.05;100.00;99730.56;5031231;28;20114;-64
2022/09/27 04:46:19;;;;;;;2.45;0.73;;;;;;;8.06;100.00;99729.72;5032894;28;20516;-64
2022/09/27 04:48:44;;;;;;;4.10;0.73;;;;;;;8.01;100.00;99736.47;5033092;28;20098;-64
2022/09/27 04:51:16;;;;;;;6.07;1.13;;;;;;;8.00;100.00;99729.59;5028276;28;20029;-64
2022/09/27 04:53:42;;;;;;;3.33;0.50;;;;;;;7.98;100.00;99720.94;5025510;28;20030;-64
2022/09/27 04:56:07;;;;;;;2.83;0.50;;;;;;;7.97;100.00;99732.09;5028017;28;20025;-64
2022/09/27 04:58:33;;;;;;;4.38;0.70;;;;;;;7.93;100.00;99739.72;5027721;28;20025;-64
2022/09/27 05:01:01;;;;;;;2.63;0.50;;;;;;;7.95;100.00;99746.66;5027483;28;20108;-64
2022/09/27 05:03:27;;;;;;;4.45;0.50;;;;;;;7.95;100.00;99756.97;5031293;28;20028;-64
2022/09/27 05:05:52;;;;;;;3.45;0.70;;;;;;;7.93;100.00;99751.78;5026829;28;20236;-64
2022/09/27 05:08:17;;;;;;;5.05;0.65;;;;;;;7.94;100.00;99756.09;5027436;28;20520;-64
2022/09/27 05:10:43;;;;;;;4.53;0.60;;;;;;;7.93;100.00;99747.47;5027207;28;20785;-64
2022/09/27 05:13:08;;;;;;;3.70;0.40;;;;;;;7.93;100.00;99754.34;5027025;28;20021;-64
2022/09/27 05:15:35;;;;;;;0.77;0.55;;;;;;;7.92;100.00;99762.91;5027122;28;20075;-64
2022/09/27 05:18:00;;;;;;;1.20;0.73;;;;;;;7.91;100.00;99772.38;5026242;28;20275;-64
2022/09/27 05:20:25;;;;;;;2.67;0.50;;;;;;;7.90;100.00;99775.78;5026863;28;20109;-64
2022/09/27 05:22:51;;;;;;;2.80;0.45;;;;;;;7.88;100.00;99782.59;5027197;28;20025;-65
2022/09/27 05:25:17;;;;;;;1.63;0.93;;;;;;;7.90;100.00;99783.50;5026481;28;20479;-64
2022/09/27 05:27:42;;;;;;;3.30;0.50;;;;;;;7.91;100.00;99780.13;5025867;28;20079;-64
2022/09/27 05:30:08;;;;;;;2.50;0.57;;;;;;;7.91;100.00;99777.53;5026557;28;20025;-64
2022/09/27 05:32:34;;;;;;;2.05;0.57;;;;;;;7.92;100.00;99776.69;5026861;28;20052;-64
2022/09/27 05:34:59;;;;;;;5.20;0.50;;;;;;;7.92;100.00;99779.28;5026274;28;20043;-64
2022/09/27 05:37:25;;;;;;;1.20;0.40;;;;;;;7.91;100.00;99782.69;5027942;28;20362;-64
2022/09/27 05:39:50;;;;;;;1.13;0.60;;;;;;;7.90;100.00;99772.31;5026195;28;20033;-64
2022/09/27 05:42:16;;;;;;;1.75;0.50;;;;;;;7.90;100.00;99773.19;5025170;28;20037;-64
2022/09/27 05:44:45;;;;;;;5.93;0.45;;;;;;;7.90;100.00;99780.06;5025281;28;20501;-64
2022/09/27 05:47:10;;;;;;;2.22;0.40;;;;;;;7.89;100.00;99768.00;5028189;28;20017;-64
2022/09/27 05:49:36;;;;;;;1.20;0.40;;;;;;;7.91;100.00;99776.66;5024818;28;20104;-65
2022/09/27 05:52:01;;;;;;;1.83;0.60;;;;;;;7.91;100.00;99771.50;5026003;28;20034;-64
2022/09/27 05:54:28;;;;;;;3.95;0.45;;;;;;;7.89;100.00;99773.16;5026760;28;20135;-65
2022/09/27 05:56:57;;;;;;;1.60;0.55;;;;;;;7.88;100.00;99777.44;5026051;28;20029;-64
2022/09/27 05:59:22;;;;;;;1.55;0.40;;;;;;;7.87;100.00;99780.88;5025377;28;20030;-64
2022/09/27 06:01:48;;;;;;;1.75;0.35;;;;;;;7.86;100.00;99776.53;5025831;28;20033;-64
2022/09/27 06:04:13;;;;;;;3.25;0.60;;;;;;;7.84;100.00;99769.59;5026309;28;20029;-65
2022/09/27 06:06:38;;;;;;;2.72;0.50;;;;;;;7.83;100.00;99773.88;5026282;28;20467;-64
2022/09/27 06:09:03;;;;;;;4.00;0.70;;;;;;;7.74;100.00;99761.59;5025642;28;20040;-65
2022/09/27 06:11:29;;;;;;;3.83;0.82;;;;;;;7.76;100.00;99767.69;5026411;28;20222;-64
2022/09/27 06:13:54;;;;;;;2.90;1.23;;;;;;;7.74;100.00;99765.88;5026603;28;20033;-64
2022/09/27 06:16:19;;;;;;;3.08;0.82;;;;;;;7.73;100.00;99772.78;5025871;28;20116;-64
2022/09/27 06:18:45;;;;;;;0.88;0.50;;;;;;;7.73;100.00;99766.72;5025248;28;20029;-64
2022/09/27 06:21:12;;;;;;;0.95;0.60;;;;;;;7.68;100.00;99764.88;5025523;28;20022;-64
2022/09/27 06:23:37;;;;;;;1.45;0.45;;;;;;;7.65;100.00;99764.81;5025494;28;20236;-64
2022/09/27 06:26:05;;;;;;;3.35;0.70;;;;;;;7.65;100.00;99767.41;5025539;28;20120;-64
2022/09/27 06:28:33;;;;;;;0.68;0.55;;;;;;;7.65;100.00;99777.72;5025090;28;20025;-64
2022/09/27 06:30:59;;;;;;;0.63;0.40;;;;;;;7.66;100.00;99776.88;5024973;28;20376;-64
2022/09/27 06:33:26;;;;;;;3.55;0.60;;;;;;;7.66;100.00;99779.44;5026610;28;20488;-64
2022/09/27 06:35:52;;;;;;;1.15;0.65;;;;;;;7.64;100.00;99770.81;5026525;28;20491;-64
2022/09/27 06:38:18;;;;;;;1.17;0.50;;;;;;;7.62;100.00;99775.06;5029473;28;20060;-65
2022/09/27 06:40:44;;;;;;;1.10;0.60;;;;;;;7.63;100.00;99787.09;5030598;28;20018;-65
2022/09/27 06:43:12;;;;;;;1.13;0.70;;;;;;;7.64;100.00;99786.28;5030178;28;20046;-64
2022/09/27 06:45:38;;;;;;;2.10;0.90;;;;;;;7.66;100.00;99789.75;5030298;28;20022;-64
2022/09/27 06:48:05;;;;;;;0.95;0.50;;;;;;;7.66;100.00;99797.50;5030620;28;20036;-64
2022/09/27 06:50:33;;;;;;;3.67;0.75;;;;;;;7.68;100.00;99785.53;5030604;28;20029;-64
2022/09/27 06:52:59;;;;;;;2.63;0.68;;;;;;;7.68;100.00;99782.94;5030317;28;20355;-64
2022/09/27 06:55:25;;;;;;;1.75;0.88;;;;;;;7.64;100.00;99773.41;5030300;28;20036;-64
2022/09/27 07:00:41;;;;;;;2.83;1.02;;;;;;;7.57;100.00;99772.34;5030451;28;20406;-64
2022/09/27 07:03:10;;;;;;;1.77;1.25;;;;;;;7.52;100.00;99779.06;5030250;28;20025;-64
2022/09/27 07:05:40;;;;;;;3.17;1.50;;;;;;;7.51;100.00;99779.03;5029698;28;20045;-64
2022/09/27 07:08:06;;;;;;;2.90;1.40;;;;;;;7.45;100.00;99785.78;5030325;28;20063;-65
2022/09/27 07:10:35;;;;;;;4.43;1.67;;;;;;;7.48;100.00;99779.84;5029980;28;20276;-64
2022/09/27 07:13:04;;;;;;;4.15;1.70;;;;;;;7.47;100.00;99777.19;5029996;28;20025;-64
2022/09/27 07:15:31;;;;;;;2.67;1.50;;;;;;;7.48;100.00;99778.97;5029945;28;20386;-65
2022/09/27 07:17:57;;;;;;;1.90;1.60;;;;;;;7.50;100.00;99782.47;5029975;28;20140;-64
2022/09/27 07:20:27;;;;;;;4.47;1.60;;;;;;;7.48;100.00;99776.38;5029640;28;20031;-64
2022/09/27 07:22:52;;;;;;;3.15;1.73;;;;;;;7.53;100.00;99786.00;5029844;28;20425;-64
2022/09/27 07:25:18;;;;;;;2.28;1.70;;;;;;;7.58;100.00;99791.25;5029773;28;20026;-64
2022/09/27 07:27:43;;;;;;;2.72;2.30;;;;;;;7.62;100.00;99798.25;5011686;28;20473;-65
2022/09/27 07:30:10;;;;;;;7.20;2.40;;;;;;;7.65;100.00;99795.75;5029688;28;20075;-64
2022/09/27 07:32:36;;;;;;;2.80;2.20;;;;;;;7.68;100.00;99793.25;5029908;28;20025;-64
2022/09/27 07:35:06;;;;;;;2.63;2.03;;;;;;;7.66;100.00;99800.06;5029897;28;20087;-64
2022/09/27 07:37:34;;;;;;;2.30;2.10;;;;;;;7.69;100.00;99802.75;5029439;28;20486;-64
2022/09/27 07:40:00;;;;;;;4.35;2.30;;;;;;;7.73;100.00;99798.56;5029828;28;20037;-64
2022/09/27 07:42:27;;;;;;;2.38;2.05;;;;;;;7.78;100.00;99802.13;5029541;28;20029;-64
2022/09/27 07:44:53;;;;;;;4.25;2.15;;;;;;;7.83;100.00;99801.34;5029449;28;20099;-64
2022/09/27 07:47:19;;;;;;;4.65;2.50;;;;;;;7.88;100.00;99813.56;5029323;28;20021;-64
2022/09/27 07:49:44;;;;;;;4.18;2.72;;;;;;;7.92;100.00;99817.09;5028703;28;20033;-64
2022/09/27 07:52:09;;;;;;;3.67;3.10;;;;;;;7.90;100.00;99806.72;5030186;28;20279;-64
2022/09/27 07:54:36;;;;;;;3.88;2.80;;;;;;;7.93;100.00;99805.97;5030025;28;20439;-65
2022/09/27 07:57:02;;;;;;;3.92;3.20;;;;;;;7.91;100.00;99816.25;5029185;28;20067;-64
2022/09/27 07:59:27;;;;;;;4.43;3.28;;;;;;;7.89;100.00;99811.84;5029368;28;20056;-64
2022/09/27 08:01:52;;;;;;;4.47;3.67;;;;;;;7.90;100.00;99816.16;5030033;28;20029;-64
2022/09/27 08:04:17;;;;;;;6.90;3.58;;;;;;;7.92;100.00;99823.13;5028877;28;20104;-64
2022/09/27 08:06:43;;;;;;;4.10;3.53;;;;;;;7.96;100.00;99823.19;5029263;28;20172;-64
2022/09/27 08:09:08;;;;;;;5.40;4.40;;;;;;;7.96;100.00;99830.94;5029208;28;20021;-64
2022/09/27 08:11:36;;;;;;;4.75;4.20;;;;;;;7.99;100.00;99821.56;5029285;28;20022;-64
2022/09/27 08:14:03;;;;;;;6.45;4.43;;;;;;;8.01;100.00;99829.34;5029390;28;20026;-64
2022/09/27 08:16:29;;;;;;;8.13;4.40;;;;;;;8.03;100.00;99826.00;5029138;28;20516;-64
2022/09/27 08:18:54;;;;;;;5.63;4.20;;;;;;;8.04;100.00;99832.88;5028881;28;20029;-64
2022/09/27 08:21:19;;;;;;;7.43;5.07;;;;;;;8.03;100.00;99831.16;5029011;28;20032;-64
2022/09/27 08:23:45;;;;;;;5.25;4.65;;;;;;;8.08;100.00;99826.09;5029122;28;20025;-64
2022/09/27 08:26:10;;;;;;;7.25;4.85;;;;;;;8.11;100.00;99825.31;5028830;28;20362;-64
2022/09/27 08:28:35;;;;;;;5.40;4.90;;;;;;;8.09;100.00;99829.56;5028862;28;20059;-64
2022/09/27 08:31:00;;;;;;;6.97;4.95;;;;;;;8.08;100.00;99820.94;5028337;28;20131;-64
2022/09/27 08:33:26;;;;;;;6.10;5.30;;;;;;;8.08;100.00;99820.94;5028749;28;20033;-64
2022/09/27 08:35:51;;;;;;;6.90;6.30;;;;;;;8.03;100.00;99822.53;5017816;28;20029;-65
2022/09/27 08:38:16;;;;;;;9.45;6.88;;;;;;;8.01;100.00;99824.19;5024549;28;20041;-64
2022/09/27 08:41:09;;;;;;;10.02;7.60;;;;;;;8.05;100.00;99832.06;5027873;28;20029;-64
2022/09/27 08:43:55;;;;;;;10.48;9.23;;;;;;;8.07;100.00;99818.31;5027578;28;20041;-64
2022/09/27 08:46:57;;;;;;;9.70;8.13;;;;;;;8.11;100.00;99833.06;5027886;28;20072;-64
2022/09/27 08:49:32;;;;;;;9.40;8.55;;;;;;;8.14;100.00;99831.44;5027837;28;20400;-64
2022/09/27 08:51:58;;;;;;;11.25;10.15;;;;;;;8.20;100.00;99829.84;5028265;28;20473;-64
2022/09/27 08:54:30;;;;;;;11.07;9.88;;;;;;;8.23;100.00;99829.91;5028278;28;20155;-64
2022/09/27 08:57:03;;;;;;;11.07;9.98;;;;;;;8.27;100.00;99831.75;5028802;28;20056;-64
2022/09/27 08:59:34;;;;;;;12.10;9.32;;;;;;;8.32;100.00;99832.75;5023265;28;20021;-65
2022/09/27 09:02:01;;;;;;;10.68;9.57;;;;;;;8.35;100.00;99830.22;5020212;28;20091;-64
2022/09/27 09:04:34;;;;;;;12.00;10.90;;;;;;;8.40;100.00;99833.78;5028053;28;20388;-64
2022/09/27 09:07:11;;;;;;;12.93;11.68;;;;;;;8.44;100.00;99837.31;5028619;28;20084;-64
2022/09/27 09:09:51;;;;;;;12.35;11.25;;;;;;;8.48;100.00;99841.75;5027875;28;20168;-64
2022/09/27 09:12:50;;;;;;;11.77;10.68;;;;;;;8.48;100.00;99846.91;5027698;28;20453;-64
2022/09/27 09:15:18;;;;;;;12.30;10.95;;;;;;;8.50;100.00;99850.41;5028045;28;20060;-64
2022/09/27 09:17:59;;;;;;;11.52;10.52;;;;;;;8.53;100.00;99847.00;5027875;28;20044;-64
2022/09/27 09:20:51;;;;;;;13.13;10.70;;;;;;;8.58;100.00;99850.59;5027442;28;20029;-65
2022/09/27 09:23:42;;;;;;;11.88;10.57;;;;;;;8.62;100.00;99860.19;5013732;28;20281;-65
2022/09/27 09:26:17;;;;;;;12.05;10.85;;;;;;;8.66;100.00;99866.28;5027870;28;20030;-65
2022/09/27 09:28:51;;;;;;;11.48;10.45;;;;;;;8.68;100.00;99869.78;5027500;28;20086;-65
2022/09/27 09:31:50;;;;;;;12.52;10.07;;;;;;;8.67;100.00;99868.03;5026580;28;20030;-65
2022/09/27 09:34:24;;;;;;;11.65;10.45;;;;;;;8.69;100.00;99855.19;4948955;28;20047;-65
2022/09/27 09:37:02;;;;;;;12.27;10.48;;;;;;;8.71;100.00;99861.22;5027597;28;20434;-65
2022/09/27 09:40:07;;;;;;;11.13;9.80;;;;;;;8.73;100.00;99846.66;5027592;28;20036;-65
2022/09/27 09:42:58;;;;;;;11.45;10.32;;;;;;;8.67;100.00;99851.69;5016371;28;20065;-64
2022/09/27 09:45:31;;;;;;;13.05;11.60;;;;;;;8.68;100.00;99853.41;5017166;28;20402;-64
2022/09/27 09:48:29;;;;;;;13.82;12.20;;;;;;;8.69;100.00;99853.44;5027174;28;20032;-64
2022/09/27 09:50:58;;;;;;;15.65;14.02;;;;;;;8.71;100.00;99858.66;5027713;28;20470;-64
2022/09/27 09:53:41;;;;;;;15.23;13.73;;;;;;;8.68;100.00;99848.25;5027276;28;20035;-64
2022/09/27 09:56:11;;;;;;;15.25;13.52;;;;;;;8.70;100.00;99844.00;5027350;28;20117;-64
2022/09/27 09:58:47;;;;;;;14.48;13.05;;;;;;;8.68;100.00;99854.28;5027504;28;20033;-65
2022/09/27 10:01:27;;;;;;;14.00;12.60;;;;;;;8.69;100.00;99861.19;5026814;28;20029;-64
2022/09/27 10:03:54;;;;;;;13.35;12.00;;;;;;;8.70;100.00;99854.31;5027271;28;20068;-64
2022/09/27 10:06:20;;;;;;;12.45;11.40;;;;;;;8.72;100.00;99853.53;5027490;28;20144;-64
2022/09/27 10:08:46;;;;;;;11.95;10.82;;;;;;;8.77;100.00;99853.63;5027785;28;20124;-65
2022/09/27 10:11:36;;;;;;;9.43;8.52;;;;;;;8.76;100.00;99851.91;5026753;28;20493;-64
2022/09/27 10:14:01;;;;;;;8.55;7.75;;;;;;;8.79;100.00;99857.13;5033568;28;20079;-65
2022/09/27 10:16:28;;;;;;;7.55;6.95;;;;;;;8.84;100.00;99859.81;5033924;28;20091;-64
2022/09/27 10:18:59;;;;;;;7.50;6.80;;;;;;;8.86;100.00;99866.78;5033906;28;20033;-64
2022/09/27 10:21:27;;;;;;;6.93;5.20;;;;;;;8.83;100.00;99869.28;5033482;28;20525;-65
2022/09/27 10:24:09;;;;;;;4.07;3.67;;;;;;;8.82;100.00;99864.06;5033335;28;20141;-64
2022/09/27 10:26:37;;;;;;;6.03;2.40;;;;;;;8.80;100.00;99856.28;5033700;28;20017;-65
2022/09/27 10:29:23;;;;;;;3.35;1.77;;;;;;;8.80;100.00;99864.03;5033366;28;20103;-64
2022/09/27 10:31:49;;;;;;;2.03;1.60;;;;;;;8.80;100.00;99863.16;5033696;28;20377;-65
2022/09/27 10:34:33;;;;;;;3.80;1.50;;;;;;;8.82;100.00;99872.69;5033562;28;20017;-65
2022/09/27 10:37:10;;;;;;;3.90;1.65;;;;;;;8.80;100.00;99874.38;5033707;28;20029;-65
2022/09/27 10:39:37;;;;;;;5.53;1.30;;;;;;;8.82;100.00;99870.13;5033600;28;20077;-64
2022/09/27 10:42:19;;;;;;;1.67;1.30;;;;;;;8.83;100.00;99864.09;5033150;28;20155;-65
2022/09/27 10:44:44;;;;;;;1.15;0.90;;;;;;;8.85;100.00;99872.75;5033142;28;20081;-64
2022/09/27 10:47:18;;;;;;;1.15;0.80;;;;;;;8.89;100.00;99872.00;5033404;28;20025;-64
2022/09/27 10:49:43;;;;;;;2.13;0.60;;;;;;;8.92;100.00;99878.09;5032947;28;20423;-64
2022/09/27 10:52:18;;;;;;;1.58;0.40;;;;;;;8.92;100.00;99878.97;5033455;28;20029;-64
2022/09/27 10:54:55;;;;;;;0.65;0.43;;;;;;;8.95;100.00;99875.56;5033424;28;20108;-64
2022/09/27 10:57:29;;;;;;;2.85;0.55;;;;;;;8.93;100.00;99879.81;5032605;28;20037;-65
2022/09/27 11:00:03;;;;;;;1.02;0.40;;;;;;;8.92;100.00;99875.50;5033318;28;20033;-65
2022/09/27 11:02:35;;;;;;;1.40;0.38;;;;;;;8.92;100.00;99876.38;5033447;28;20674;-64
2022/09/27 11:05:13;;;;;;;1.98;0.30;;;;;;;8.94;100.00;99871.25;5033233;28;20048;-64
2022/09/27 11:08:01;;;;;;;0.63;0.38;;;;;;;8.94;100.00;99871.25;5033371;28;20071;-64
2022/09/27 11:10:34;;;;;;;4.88;0.65;;;;;;;8.92;100.00;99876.38;5033045;28;20029;-64
2022/09/27 11:13:07;;;;;;;0.68;0.50;;;;;;;8.91;100.00;99872.03;5015583;28;20509;-64
2022/09/27 11:16:03;;;;;;;0.77;0.40;;;;;;;8.89;100.00;99869.44;5033044;28;20041;-64
2022/09/27 11:19:05;;;;;;;1.00;0.43;;;;;;;8.88;100.00;99871.97;5033146;28;20526;-65
2022/09/27 11:21:49;;;;;;;0.85;0.40;;;;;;;8.93;100.00;99864.31;5032993;28;20025;-65
2022/09/27 11:24:53;;;;;;;1.65;0.50;;;;;;;8.95;100.00;99865.25;5031560;28;20359;-65
2022/09/27 11:27:33;;;;;;;1.02;0.35;;;;;;;9.00;100.00;99855.88;5030002;28;20036;-64
2022/09/27 11:30:08;;;;;;;2.75;0.70;;;;;;;9.07;100.00;99856.88;5029794;28;20018;-64
2022/09/27 11:32:53;;;;;;;3.25;0.70;;;;;;;9.15;100.00;99844.13;5029917;28;20075;-65
2022/09/27 11:35:33;;;;;;;2.47;0.40;;;;;;;9.27;100.00;99849.56;5030002;28;20034;-65
2022/09/27 11:38:16;;;;;;;2.38;0.60;;;;;;;9.35;100.00;99842.00;5030008;28;20481;-64
2022/09/27 11:41:07;;;;;;;0.60;0.30;;;;;;;9.45;100.00;99845.63;5030202;28;20500;-65
2022/09/27 11:43:46;;;;;;;1.03;0.30;;;;;;;9.58;100.00;99844.16;5029178;28;20050;-64
2022/09/27 11:46:32;;;;;;;1.35;0.30;;;;;;;9.66;100.00;99837.41;5029262;28;20539;-65
2022/09/27 11:49:27;;;;;;;1.30;0.40;;;;;;;9.72;100.00;99832.38;5029552;28;20036;-64
2022/09/27 11:52:14;;;;;;;1.95;0.68;;;;;;;9.82;100.00;99845.50;5028823;28;20025;-64
2022/09/27 11:55:18;;;;;;;2.30;0.80;;;;;;;9.92;100.00;99838.78;5029606;28;20029;-65